KUNO

Details ICAO KUNO
Name WEST PLAINS MUNI
Region United States
Timezone America/Chicago (UTC-5.0)
Plans Departing 2
Arriving 1
Stats Elevation 1,228 ft / 374 m (AMSL)
Location 36.878425° -91.902675°
Runways 1
Magnetic Variation 0.171° W
Sunrise 2018-05-23 10:55:36 UTC / 2018-05-23 05:55:36 Local
Sunset 2018-05-24 01:16:02 UTC / 2018-05-23 20:16:02 Local
Advertisement - Login to hide

Runways

ID Width Length Bearing (true) Bearing (mag) Surface Threshold Offset Overrun Length
18 75 ft / 23 m 5,114 ft / 1,559 m 180.89° 181.06° Asphalt 0 ft / 0 m 0 ft / 0 m
36 75 ft / 23 m 5,114 ft / 1,559 m 0.89° 1.06° Asphalt 0 ft / 0 m 0 ft / 0 m

Map

Weather


0- 5 10 15 20 25 30 35+ Temperature / ° C

Clouds and Precipitation
Forecast for 2018-05-23 18:00 UTC. Updated 2 hours ago

Ground ~20,000 ft ~40,000 ft Winds

METAR

KUNO 231853Z AUTO 12009KT 10SM FEW065 29/20 A3012 RMK AO2 LTG DSNT SW SLP187 T02890200

TAF

Not found

Frequencies

Recorded 123.82 MHz ASOS
Unicom 122.80 MHz CTAF/UNICOM
Warning: Do not use this data for real-world aviation or navigation. No guarantee of current accuracy is given.